Flight ASXV29

  • Submitted By: Krzysztof H. Blaszkow
  • Departure Airport: Fuerteventura Airport (GCFV)
  • Arrival Airport: Lanzarote Airport (GCRR)
  • Aircraft: C 172 (LC-LXZ)
  • Flight Time: 00.46.37
  • Date Submitted: 06/19/2017
  • Status: Accepted
Flight Details
Gross Revenue:
(3 load / € 300.00 per unit
€ 900.00
Fuel Cost:
(15.8757 fuel used @ 0.45 / unit)
€ 7.14

Additional Log Information:

View Log

[20:04] - Cessna Skyhawk 172SP Paint2
[20:04] - Flight ASXV29 is ready to depart GCFV with a final destination of GCRR.
[20:04] - Parking Brake Applied
[20:04] - Beacon Light ON
[20:04] - Boarding
[20:04] - ADF1 - 397.0
[20:04] - ADF2 - 240.0
[20:04] - NAV1 - 115.00
[20:04] - NAV2 - 114.10
[20:04] - COM1 - 122.80
[20:04] - COM2 - 123.45
[20:04] - Transponder - 7000
[20:05] - Engine 1 Started
[20:05] - Taxi Lights ON 3AGL
[20:05] - Navigation Lights ON 3AGL
[20:06] - Parking Brake Released
[20:06] - Taxiing to Runway
[20:10] - Landing Lights ON 3AGL
[20:10] - Taxi Lights OFF 3AGL
[20:10] - Strobe Lights ON 3AGL
[20:10] - Flaps to position 1
[20:10] - Flaps to position 2
[20:11] - Taking Off with 3 passengers on board
[20:11] - Take off at 71kts, with a pitch of 3deg and 143lbs of fuel on board
[20:11] - Wind Heading 35 | Wind Speed 3kts | Temperature 25 deg C
[20:11] - METAR Departure: GCFV 191900Z VRB02KT 9999 FEW030 25/19 Q1014

[20:11] - Flaps to position 1 at 115ft and 73kts
[20:11] - Flaps to position 0 at 118ft and 73kts
[20:12] - Climbing to TOC
[20:14] - TOC reached
[20:14] - Cruise started
[20:16] - AutoPilot Engaged at 1522AGL
[20:20] - Landing Lights OFF 1896AGL
[20:27] - NAV1 - 114.40
[20:28] - ADF1 - 310.0
[20:41] - Flaps to position 1 at 1168ft and 116kts
[20:41] - Flaps to position 2 at 1165ft and 116kts
[20:41] - AutoPilot Disengaged at 538AGL
[20:43] - Landed at -34fpm. With 110lbs of fuel onboard and a pitch angle of 0deg.
[20:43] - Wind Heading 36 | Wind Speed 2kts | Temperature 23 deg C
[20:43] - METAR Arrival: GCRR 191930Z 15005KT 9999 FEW030 23/19 Q1015

[20:43] - Flaps to position 1
[20:43] - Flaps to position 0
[20:44] - Taxi Lights ON 3AGL
[20:44] - Taxiing to Gate
[20:50] - Parking Brake Applied
[20:50] - Arrived safely at GCRR. We hope you enjoyed your flight!
[20:50] - Engine 1 Stopped
[20:50] - Navigation Lights OFF 3AGL
[20:50] - Taxi Lights OFF 3AGL
[20:50] - Strobe Lights OFF 3AGL
[20:51] - Cessna Skyhawk 172SP Paint2
[20:51] - MaxSim Rate: 1x
[20:51] - SiouxAcars ver: 1.0.1.2

Route Map